Taurus — WYH6499 — position and weather

sailwx.info

Track history (hours):
 
Tides and Currents Weather Stations Pressure Air Temp Water Temp Dewpoint Dewpoint Depression Visibility Wind Speed Wind Dir Waves Ship Positions

Taurus

Owner: DUNLAP TOWING CO, LA CONNER, WA. More information available from US FCC via Universal Licensing System and Coast Guard Vessel Documentation Center.

Last reported at 2017-Oct-20 12:08 UTC. Time now 2017-Oct-20 12:47 UTC.
Position N 48°01' W 122°37'.

Type: Towing. MMSI: 303398000.

Date/timePositionNaut miles runAvg speedWind from/ knotsBaromVisibWave heightAir tempDewpointWater temp
2017-Oct-20 12:08N 48°01' W 122°37'1 6.1
2017-Oct-20 11:59N 48°00' W 122°36'3 5.2
2017-Oct-20 11:30N 47°58' W 122°34'3 5.9
2017-Oct-20 11:00N 47°57' W 122°31'3 6.6
2017-Oct-20 10:30N 47°54' W 122°27'3 6.0
2017-Oct-20 10:00N 47°53' W 122°23'4 6.9
2017-Oct-20 09:30N 47°56' W 122°20'3 6.9
2017-Oct-20 09:00N 47°58' W 122°16'2 3.6
2017-Oct-20 08:30N 47°59' W 122°13'1 1.1
2017-Oct-20 08:00N 47°59' W 122°14'5 9.6
2017-Oct-20 07:30N 47°56' W 122°20'611.2
2017-Oct-20 07:00N 47°51' W 122°24'611.0
2017-Oct-20 06:30N 47°46' W 122°26'611.9
2017-Oct-20 06:00N 47°40' W 122°27'510.9
2017-Oct-20 05:30N 47°35' W 122°29'3 5.1
2017-Oct-20 05:00N 47°34' W 122°32'1 2.9
2017-Oct-20 04:30N 47°34' W 122°30'3 6.4
2017-Oct-20 04:00N 47°37' W 122°28'4 7.1
2017-Oct-20 03:30N 47°40' W 122°28'4 7.0
2017-Oct-20 03:00N 47°44' W 122°27'3 6.8
2017-Oct-20 02:30N 47°47' W 122°27'4 7.3
2017-Oct-20 02:00N 47°51' W 122°25'4 8.1
2017-Oct-20 01:30N 47°54' W 122°22'4 8.1
2017-Oct-20 01:00N 47°58' W 122°20'5 8.1
2017-Oct-20 00:22N 48°03' W 122°23'3 7.9
2017-Oct-20 00:00N 48°05' W 122°26'1 0.1
2017-Oct-19 10:20N 48°05' W 122°27'2 5.2
2017-Oct-19 10:00N 48°04' W 122°25'3 5.8
2017-Oct-19 09:29N 48°02' W 122°22'3 5.5
2017-Oct-19 09:00N 48°00' W 122°21'3 5.6
2017-Oct-19 08:30N 47°57' W 122°20'3 5.5
2017-Oct-19 08:00N 47°55' W 122°21'3 6.1
2017-Oct-19 07:30N 47°52' W 122°23'3 6.2
2017-Oct-19 07:00N 47°49' W 122°25'3 6.2
2017-Oct-19 06:30N 47°46' W 122°26'3 6.3
2017-Oct-19 06:00N 47°43' W 122°26'3 6.7
2017-Oct-19 05:30N 47°39' W 122°27'3 6.4
2017-Oct-19 05:00N 47°36' W 122°27'3 6.1
2017-Oct-19 04:30N 47°34' W 122°30'2 3.2
2017-Oct-19 04:00N 47°34' W 122°32'0 0.0
2017-Oct-19 03:30N 47°34' W 122°32'0 0.0
2017-Oct-19 03:00N 47°34' W 122°32'0 0.0
2017-Oct-19 02:30N 47°34' W 122°32'0 0.0
2017-Oct-19 02:00N 47°34' W 122°32'0 0.0
2017-Oct-19 01:30N 47°34' W 122°32'0 0.0
2017-Oct-19 01:00N 47°34' W 122°32'0 0.0
2017-Oct-19 00:30N 47°34' W 122°32'0 0.0
2017-Oct-19 00:00N 47°34' W 122°32'0 0.0
2017-Oct-18 23:30N 47°34' W 122°32'0 0.0
2017-Oct-18 23:00N 47°34' W 122°32'0 0.0
2017-Oct-18 22:30N 47°34' W 122°32'0 0.0
2017-Oct-18 22:00N 47°34' W 122°32'0 0.0
2017-Oct-18 21:30N 47°34' W 122°32'0 0.0
2017-Oct-18 21:00N 47°34' W 122°32'0 0.0
2017-Oct-18 20:30N 47°34' W 122°32'0 0.5
2017-Oct-18 20:00N 47°34' W 122°32'5 9.5
2017-Oct-18 19:30N 47°36' W 122°25'3 5.9
2017-Oct-18 19:00N 47°35' W 122°21'0 0.0
2017-Oct-18 18:30N 47°35' W 122°21'0 0.0
2017-Oct-18 18:00N 47°35' W 122°21'0 0.0
2017-Oct-18 17:30N 47°35' W 122°21'0 0.0
2017-Oct-18 17:00N 47°35' W 122°21'0 0.0
2017-Oct-18 16:30N 47°35' W 122°21'5 9.2
2017-Oct-18 16:00N 47°38' W 122°26'510.3
2017-Oct-18 15:30N 47°44' W 122°26'510.5
2017-Oct-18 15:00N 47°49' W 122°24'1111.1
2017-Oct-18 14:00N 47°58' W 122°16'2 3.9
2017-Oct-18 13:30N 47°59' W 122°13'0 0.0
2017-Oct-18 13:00N 47°59' W 122°13'0 0.0
2017-Oct-18 12:30N 47°59' W 122°13'0 0.0
2017-Oct-18 12:00N 47°59' W 122°13'0 0.0
2017-Oct-18 11:30N 47°59' W 122°13'0 0.0
2017-Oct-18 11:00N 47°59' W 122°13'0 0.0
2017-Oct-18 10:30N 47°59' W 122°13'0 0.0
2017-Oct-18 10:00N 47°59' W 122°13'0 0.0
2017-Oct-18 09:30N 47°59' W 122°13'1 2.1
2017-Oct-18 08:58N 47°59' W 122°15'2 4.9
2017-Oct-18 08:30N 47°58' W 122°17'4 7.9
2017-Oct-18 08:00N 47°55' W 122°21'4 7.0
2017-Oct-18 07:30N 47°54' W 122°26'4 8.2
2017-Oct-18 07:00N 47°56' W 122°31'4 7.9
2017-Oct-18 06:29N 47°58' W 122°36'11 5.8
2017-Oct-18 04:37N 48°06' W 122°48'0 0.2
2017-Oct-18 04:24N 48°06' W 122°48'1 3.5
2017-Oct-18 03:59N 48°06' W 122°46'6 7.1
2017-Oct-18 03:06N 48°02' W 122°38'110.8
2017-Oct-18 02:59N 48°01' W 122°37'510.7
2017-Oct-18 02:30N 47°57' W 122°33'5 9.7
2017-Oct-18 02:00N 47°54' W 122°27'4 7.0
2017-Oct-18 01:30N 47°55' W 122°21'4 8.0
2017-Oct-18 01:00N 47°58' W 122°18'3 5.3
2017-Oct-18 00:30N 47°59' W 122°15'3 5.2
2017-Oct-18 00:00N 47°58' W 122°18'4 8.6
2017-Oct-17 23:30N 47°55' W 122°22'4 7.7
2017-Oct-17 23:00N 47°54' W 122°27'5 9.9
2017-Oct-17 22:30N 47°57' W 122°34'8 2.4
2017-Oct-17 19:19N 48°01' W 122°43'3 8.7
2017-Oct-17 18:58N 47°59' W 122°40'5 9.9
2017-Oct-17 18:30N 47°57' W 122°34'510.6
2017-Oct-17 18:00N 47°54' W 122°27'4 8.9
2017-Oct-17 17:30N 47°55' W 122°21'3 5.5
2017-Oct-17 17:00N 47°57' W 122°18'0 0.1
2017-Oct-17 16:30N 47°57' W 122°18'0 0.1
2017-Oct-17 16:00N 47°57' W 122°18'0 0.1
2017-Oct-17 15:30N 47°57' W 122°18'0 0.0
2017-Oct-17 15:00N 47°57' W 122°18'0 0.0
2017-Oct-17 14:30N 47°57' W 122°18'2 3.3
2017-Oct-17 14:00N 47°58' W 122°16'2 4.1
2017-Oct-17 13:30N 47°59' W 122°13'  
2017-Oct-14 04:46N 47°59' W 122°14'310.3
2017-Oct-14 04:30N 47°58' W 122°17'510.6
2017-Oct-14 04:01N 47°53' W 122°22'611.2
2017-Oct-14 03:31N 47°48' W 122°25'611.7
2017-Oct-14 03:01N 47°42' W 122°26'611.4
2017-Oct-14 02:31N 47°37' W 122°27'5 9.4
2017-Oct-14 02:01N 47°34' W 122°32'0 0.1
2017-Oct-14 01:30N 47°34' W 122°32'0 0.0
2017-Oct-14 01:00N 47°34' W 122°32'1 2.2
2017-Oct-14 00:30N 47°34' W 122°31'3 6.2
2017-Oct-14 00:00N 47°36' W 122°28'4 7.1
2017-Oct-13 23:29N 47°40' W 122°28'3 7.3
2017-Oct-13 23:01N 47°43' W 122°26'4 7.1
2017-Oct-13 22:31N 47°47' W 122°25'4 7.3
2017-Oct-13 22:01N 47°50' W 122°24'4 7.8
2017-Oct-13 21:30N 47°54' W 122°22'4 8.0
2017-Oct-13 21:00N 47°57' W 122°19'4 7.2
2017-Oct-13 20:31N 47°59' W 122°14'1 1.1
2017-Oct-13 20:00N 47°59' W 122°13'0 0.3
2017-Oct-13 19:31N 47°59' W 122°13'0 0.0
2017-Oct-13 19:01N 47°59' W 122°13'0 0.0
2017-Oct-13 18:31N 47°59' W 122°13'0 0.0
2017-Oct-13 18:00N 47°59' W 122°13'1 1.5
2017-Oct-13 17:31N 47°59' W 122°14'2 3.2
2017-Oct-13 17:00N 47°58' W 122°17'5 9.2
2017-Oct-13 16:31N 47°55' W 122°21'4 8.4
2017-Oct-13 16:01N 47°54' W 122°27'510.2
2017-Oct-13 15:31N 47°57' W 122°34'11 2.8
2017-Oct-13 11:28N 48°07' W 122°43'4 6.9
2017-Oct-13 10:53N 48°04' W 122°38'4 9.4
2017-Oct-13 10:29N 48°00' W 122°36'4 8.8
2017-Oct-13 10:01N 47°57' W 122°32'4 8.2
2017-Oct-13 09:31N 47°55' W 122°28'4 7.1
2017-Oct-13 09:00N 47°54' W 122°23'4 7.0
2017-Oct-13 08:30N 47°57' W 122°20'3 7.0
2017-Oct-13 08:00N 47°59' W 122°16'0 1.0
2017-Oct-13 07:30N 47°59' W 122°15'510.6
2017-Oct-13 07:01N 47°55' W 122°21'611.5
2017-Oct-13 06:31N 47°50' W 122°24'612.0
2017-Oct-13 06:00N 47°44' W 122°26'611.7
2017-Oct-13 05:31N 47°38' W 122°27'510.0
2017-Oct-13 05:01N 47°34' W 122°30'1 1.9
2017-Oct-13 04:30N 47°33' W 122°31'2 4.7
2017-Oct-13 04:01N 47°35' W 122°28'4 8.2
2017-Oct-13 03:30N 47°39' W 122°29'4 8.3
2017-Oct-13 03:00N 47°43' W 122°28'4 8.4
2017-Oct-13 02:31N 47°47' W 122°27'4 8.2
2017-Oct-13 02:01N 47°51' W 122°24'4 8.7
2017-Oct-13 01:31N 47°55' W 122°21'4 8.5
2017-Oct-13 01:00N 47°59' W 122°20'5 8.4
2017-Oct-13 00:28N 48°03' W 122°23'6 8.6
2017-Oct-12 23:44N 48°07' W 122°30'11 1.1
2017-Oct-12 13:46N 48°17' W 122°37'9 3.3
2017-Oct-12 11:02N 48°09' W 122°32'0 5.4
2017-Oct-12 10:58N 48°09' W 122°32'5 6.1
2017-Oct-12 10:12N 48°05' W 122°27'1 5.8
2017-Oct-12 10:00N 48°04' W 122°26'3 5.8
2017-Oct-12 09:27N 48°02' W 122°22'2 5.6
2017-Oct-12 09:00N 48°00' W 122°21'3 5.8
2017-Oct-12 08:30N 47°57' W 122°20'3 5.3
2017-Oct-12 08:00N 47°55' W 122°21'3 5.5
2017-Oct-12 07:31N 47°52' W 122°23'3 6.2
2017-Oct-12 07:01N 47°49' W 122°24'3 5.6
2017-Oct-12 06:31N 47°47' W 122°25'3 5.8
2017-Oct-12 06:01N 47°44' W 122°26'3 6.1
2017-Oct-12 05:30N 47°41' W 122°27'3 6.0
2017-Oct-12 05:00N 47°38' W 122°27'3 5.6
2017-Oct-12 04:31N 47°35' W 122°27'3 5.9
2017-Oct-12 04:01N 47°34' W 122°31'1 1.2
2017-Oct-12 03:31N 47°34' W 122°32'0 0.0
2017-Oct-12 03:01N 47°34' W 122°32'0 0.4
2017-Oct-12 02:31N 47°34' W 122°32'5 9.2
2017-Oct-12 02:00N 47°38' W 122°28'611.1
2017-Oct-12 01:31N 47°43' W 122°27'611.2
2017-Oct-12 01:01N 47°48' W 122°24'611.6
2017-Oct-12 00:31N 47°54' W 122°22'611.3
2017-Oct-12 00:00N 47°58' W 122°17'0 0.7
2017-Oct-11 23:30N 47°59' W 122°16'4 9.0
2017-Oct-11 23:01N 47°55' W 122°21'4 7.8
2017-Oct-11 22:31N 47°54' W 122°26'4 8.9
2017-Oct-11 22:01N 47°55' W 122°32'5 8.7
2017-Oct-11 21:29N 47°57' W 122°39'10 5.0
2017-Oct-11 19:33N 48°06' W 122°44'3 7.1
2017-Oct-11 19:05N 48°04' W 122°40'1 8.9
2017-Oct-11 19:00N 48°04' W 122°39'4 8.0
2017-Oct-11 18:27N 48°00' W 122°36'4 8.1
2017-Oct-11 18:00N 47°57' W 122°32'4 8.6
2017-Oct-11 17:31N 47°55' W 122°27'4 7.3
2017-Oct-11 17:01N 47°54' W 122°22'19 1.0
2017-Oct-10 21:39N 48°07' W 122°43'5 7.9
2017-Oct-10 21:02N 48°03' W 122°38'110.3
2017-Oct-10 20:58N 48°02' W 122°38'510.1
2017-Oct-10 20:30N 47°58' W 122°34'5 9.6
2017-Oct-10 20:01N 47°55' W 122°29'4 8.8
2017-Oct-10 19:31N 47°54' W 122°23'4 9.0
2017-Oct-10 19:01N 47°57' W 122°19'4 7.1
2017-Oct-10 18:30N 47°59' W 122°15'  
Track history (hours):
 
Tides and Currents Weather Stations Pressure Air Temp Water Temp Dewpoint Dewpoint Depression Visibility Wind Speed Wind Dir Waves Ship Positions

Taurus

Owner: DUNLAP TOWING CO, LA CONNER, WA. More information available from US FCC via Universal Licensing System and Coast Guard Vessel Documentation Center.

Last reported at 2017-Oct-20 12:08 UTC. Time now 2017-Oct-20 12:47 UTC.
Position N 48°01' W 122°37'.

Type: Towing. MMSI: 303398000.

Date/timePositionNaut miles runAvg speedWind from/ knotsBaromVisibWave heightAir tempDewpointWater temp
2017-Oct-20 12:08N 48°01' W 122°37'1 6.1
2017-Oct-20 11:59N 48°00' W 122°36'3 5.2
2017-Oct-20 11:30N 47°58' W 122°34'3 5.9
2017-Oct-20 11:00N 47°57' W 122°31'3 6.6
2017-Oct-20 10:30N 47°54' W 122°27'3 6.0
2017-Oct-20 10:00N 47°53' W 122°23'4 6.9
2017-Oct-20 09:30N 47°56' W 122°20'3 6.9
2017-Oct-20 09:00N 47°58' W 122°16'2 3.6
2017-Oct-20 08:30N 47°59' W 122°13'1 1.1
2017-Oct-20 08:00N 47°59' W 122°14'5 9.6
2017-Oct-20 07:30N 47°56' W 122°20'611.2
2017-Oct-20 07:00N 47°51' W 122°24'611.0
2017-Oct-20 06:30N 47°46' W 122°26'611.9
2017-Oct-20 06:00N 47°40' W 122°27'510.9
2017-Oct-20 05:30N 47°35' W 122°29'3 5.1
2017-Oct-20 05:00N 47°34' W 122°32'1 2.9
2017-Oct-20 04:30N 47°34' W 122°30'3 6.4
2017-Oct-20 04:00N 47°37' W 122°28'4 7.1
2017-Oct-20 03:30N 47°40' W 122°28'4 7.0
2017-Oct-20 03:00N 47°44' W 122°27'3 6.8
2017-Oct-20 02:30N 47°47' W 122°27'4 7.3
2017-Oct-20 02:00N 47°51' W 122°25'4 8.1
2017-Oct-20 01:30N 47°54' W 122°22'4 8.1
2017-Oct-20 01:00N 47°58' W 122°20'5 8.1
2017-Oct-20 00:22N 48°03' W 122°23'3 7.9
2017-Oct-20 00:00N 48°05' W 122°26'1 0.1
2017-Oct-19 10:20N 48°05' W 122°27'2 5.2
2017-Oct-19 10:00N 48°04' W 122°25'3 5.8
2017-Oct-19 09:29N 48°02' W 122°22'3 5.5
2017-Oct-19 09:00N 48°00' W 122°21'3 5.6
2017-Oct-19 08:30N 47°57' W 122°20'3 5.5
2017-Oct-19 08:00N 47°55' W 122°21'3 6.1
2017-Oct-19 07:30N 47°52' W 122°23'3 6.2
2017-Oct-19 07:00N 47°49' W 122°25'3 6.2
2017-Oct-19 06:30N 47°46' W 122°26'3 6.3
2017-Oct-19 06:00N 47°43' W 122°26'3 6.7
2017-Oct-19 05:30N 47°39' W 122°27'3 6.4
2017-Oct-19 05:00N 47°36' W 122°27'3 6.1
2017-Oct-19 04:30N 47°34' W 122°30'2 3.2
2017-Oct-19 04:00N 47°34' W 122°32'0 0.0
2017-Oct-19 03:30N 47°34' W 122°32'0 0.0
2017-Oct-19 03:00N 47°34' W 122°32'0 0.0
2017-Oct-19 02:30N 47°34' W 122°32'0 0.0
2017-Oct-19 02:00N 47°34' W 122°32'0 0.0
2017-Oct-19 01:30N 47°34' W 122°32'0 0.0
2017-Oct-19 01:00N 47°34' W 122°32'0 0.0
2017-Oct-19 00:30N 47°34' W 122°32'0 0.0
2017-Oct-19 00:00N 47°34' W 122°32'0 0.0
2017-Oct-18 23:30N 47°34' W 122°32'0 0.0
2017-Oct-18 23:00N 47°34' W 122°32'0 0.0
2017-Oct-18 22:30N 47°34' W 122°32'0 0.0
2017-Oct-18 22:00N 47°34' W 122°32'0 0.0
2017-Oct-18 21:30N 47°34' W 122°32'0 0.0
2017-Oct-18 21:00N 47°34' W 122°32'0 0.0
2017-Oct-18 20:30N 47°34' W 122°32'0 0.5
2017-Oct-18 20:00N 47°34' W 122°32'5 9.5
2017-Oct-18 19:30N 47°36' W 122°25'3 5.9
2017-Oct-18 19:00N 47°35' W 122°21'0 0.0
2017-Oct-18 18:30N 47°35' W 122°21'0 0.0
2017-Oct-18 18:00N 47°35' W 122°21'0 0.0
2017-Oct-18 17:30N 47°35' W 122°21'0 0.0
2017-Oct-18 17:00N 47°35' W 122°21'0 0.0
2017-Oct-18 16:30N 47°35' W 122°21'5 9.2
2017-Oct-18 16:00N 47°38' W 122°26'510.3
2017-Oct-18 15:30N 47°44' W 122°26'510.5
2017-Oct-18 15:00N 47°49' W 122°24'1111.1
2017-Oct-18 14:00N 47°58' W 122°16'2 3.9
2017-Oct-18 13:30N 47°59' W 122°13'0 0.0
2017-Oct-18 13:00N 47°59' W 122°13'0 0.0
2017-Oct-18 12:30N 47°59' W 122°13'0 0.0
2017-Oct-18 12:00N 47°59' W 122°13'0 0.0
2017-Oct-18 11:30N 47°59' W 122°13'0 0.0
2017-Oct-18 11:00N 47°59' W 122°13'0 0.0
2017-Oct-18 10:30N 47°59' W 122°13'0 0.0
2017-Oct-18 10:00N 47°59' W 122°13'0 0.0
2017-Oct-18 09:30N 47°59' W 122°13'1 2.1
2017-Oct-18 08:58N 47°59' W 122°15'2 4.9
2017-Oct-18 08:30N 47°58' W 122°17'4 7.9
2017-Oct-18 08:00N 47°55' W 122°21'4 7.0
2017-Oct-18 07:30N 47°54' W 122°26'4 8.2
2017-Oct-18 07:00N 47°56' W 122°31'4 7.9
2017-Oct-18 06:29N 47°58' W 122°36'11 5.8
2017-Oct-18 04:37N 48°06' W 122°48'0 0.2
2017-Oct-18 04:24N 48°06' W 122°48'1 3.5
2017-Oct-18 03:59N 48°06' W 122°46'6 7.1
2017-Oct-18 03:06N 48°02' W 122°38'110.8
2017-Oct-18 02:59N 48°01' W 122°37'510.7
2017-Oct-18 02:30N 47°57' W 122°33'5 9.7
2017-Oct-18 02:00N 47°54' W 122°27'4 7.0
2017-Oct-18 01:30N 47°55' W 122°21'4 8.0
2017-Oct-18 01:00N 47°58' W 122°18'3 5.3
2017-Oct-18 00:30N 47°59' W 122°15'3 5.2
2017-Oct-18 00:00N 47°58' W 122°18'4 8.6
2017-Oct-17 23:30N 47°55' W 122°22'4 7.7
2017-Oct-17 23:00N 47°54' W 122°27'5 9.9
2017-Oct-17 22:30N 47°57' W 122°34'8 2.4
2017-Oct-17 19:19N 48°01' W 122°43'3 8.7
2017-Oct-17 18:58N 47°59' W 122°40'5 9.9
2017-Oct-17 18:30N 47°57' W 122°34'510.6
2017-Oct-17 18:00N 47°54' W 122°27'4 8.9
2017-Oct-17 17:30N 47°55' W 122°21'3 5.5
2017-Oct-17 17:00N 47°57' W 122°18'0 0.1
2017-Oct-17 16:30N 47°57' W 122°18'0 0.1
2017-Oct-17 16:00N 47°57' W 122°18'0 0.1
2017-Oct-17 15:30N 47°57' W 122°18'0 0.0
2017-Oct-17 15:00N 47°57' W 122°18'0 0.0
2017-Oct-17 14:30N 47°57' W 122°18'2 3.3
2017-Oct-17 14:00N 47°58' W 122°16'2 4.1
2017-Oct-17 13:30N 47°59' W 122°13'  
2017-Oct-14 04:46N 47°59' W 122°14'310.3
2017-Oct-14 04:30N 47°58' W 122°17'510.6
2017-Oct-14 04:01N 47°53' W 122°22'611.2
2017-Oct-14 03:31N 47°48' W 122°25'611.7
2017-Oct-14 03:01N 47°42' W 122°26'611.4
2017-Oct-14 02:31N 47°37' W 122°27'5 9.4
2017-Oct-14 02:01N 47°34' W 122°32'0 0.1
2017-Oct-14 01:30N 47°34' W 122°32'0 0.0
2017-Oct-14 01:00N 47°34' W 122°32'1 2.2
2017-Oct-14 00:30N 47°34' W 122°31'3 6.2
2017-Oct-14 00:00N 47°36' W 122°28'4 7.1
2017-Oct-13 23:29N 47°40' W 122°28'3 7.3
2017-Oct-13 23:01N 47°43' W 122°26'4 7.1
2017-Oct-13 22:31N 47°47' W 122°25'4 7.3
2017-Oct-13 22:01N 47°50' W 122°24'4 7.8
2017-Oct-13 21:30N 47°54' W 122°22'4 8.0
2017-Oct-13 21:00N 47°57' W 122°19'4 7.2
2017-Oct-13 20:31N 47°59' W 122°14'1 1.1
2017-Oct-13 20:00N 47°59' W 122°13'0 0.3
2017-Oct-13 19:31N 47°59' W 122°13'0 0.0
2017-Oct-13 19:01N 47°59' W 122°13'0 0.0
2017-Oct-13 18:31N 47°59' W 122°13'0 0.0
2017-Oct-13 18:00N 47°59' W 122°13'1 1.5
2017-Oct-13 17:31N 47°59' W 122°14'2 3.2
2017-Oct-13 17:00N 47°58' W 122°17'5 9.2
2017-Oct-13 16:31N 47°55' W 122°21'4 8.4
2017-Oct-13 16:01N 47°54' W 122°27'510.2
2017-Oct-13 15:31N 47°57' W 122°34'11 2.8
2017-Oct-13 11:28N 48°07' W 122°43'4 6.9
2017-Oct-13 10:53N 48°04' W 122°38'4 9.4
2017-Oct-13 10:29N 48°00' W 122°36'4 8.8
2017-Oct-13 10:01N 47°57' W 122°32'4 8.2
2017-Oct-13 09:31N 47°55' W 122°28'4 7.1
2017-Oct-13 09:00N 47°54' W 122°23'4 7.0
2017-Oct-13 08:30N 47°57' W 122°20'3 7.0
2017-Oct-13 08:00N 47°59' W 122°16'0 1.0
2017-Oct-13 07:30N 47°59' W 122°15'510.6
2017-Oct-13 07:01N 47°55' W 122°21'611.5
2017-Oct-13 06:31N 47°50' W 122°24'612.0
2017-Oct-13 06:00N 47°44' W 122°26'611.7
2017-Oct-13 05:31N 47°38' W 122°27'510.0
2017-Oct-13 05:01N 47°34' W 122°30'1 1.9
2017-Oct-13 04:30N 47°33' W 122°31'2 4.7
2017-Oct-13 04:01N 47°35' W 122°28'4 8.2
2017-Oct-13 03:30N 47°39' W 122°29'4 8.3
2017-Oct-13 03:00N 47°43' W 122°28'4 8.4
2017-Oct-13 02:31N 47°47' W 122°27'4 8.2
2017-Oct-13 02:01N 47°51' W 122°24'4 8.7
2017-Oct-13 01:31N 47°55' W 122°21'4 8.5
2017-Oct-13 01:00N 47°59' W 122°20'5 8.4
2017-Oct-13 00:28N 48°03' W 122°23'6 8.6
2017-Oct-12 23:44N 48°07' W 122°30'11 1.1
2017-Oct-12 13:46N 48°17' W 122°37'9 3.3
2017-Oct-12 11:02N 48°09' W 122°32'0 5.4
2017-Oct-12 10:58N 48°09' W 122°32'5 6.1
2017-Oct-12 10:12N 48°05' W 122°27'1 5.8
2017-Oct-12 10:00N 48°04' W 122°26'3 5.8
2017-Oct-12 09:27N 48°02' W 122°22'2 5.6
2017-Oct-12 09:00N 48°00' W 122°21'3 5.8
2017-Oct-12 08:30N 47°57' W 122°20'3 5.3
2017-Oct-12 08:00N 47°55' W 122°21'3 5.5
2017-Oct-12 07:31N 47°52' W 122°23'3 6.2
2017-Oct-12 07:01N 47°49' W 122°24'3 5.6
2017-Oct-12 06:31N 47°47' W 122°25'3 5.8
2017-Oct-12 06:01N 47°44' W 122°26'3 6.1
2017-Oct-12 05:30N 47°41' W 122°27'3 6.0
2017-Oct-12 05:00N 47°38' W 122°27'3 5.6
2017-Oct-12 04:31N 47°35' W 122°27'3 5.9
2017-Oct-12 04:01N 47°34' W 122°31'1 1.2
2017-Oct-12 03:31N 47°34' W 122°32'0 0.0
2017-Oct-12 03:01N 47°34' W 122°32'0 0.4
2017-Oct-12 02:31N 47°34' W 122°32'5 9.2
2017-Oct-12 02:00N 47°38' W 122°28'611.1
2017-Oct-12 01:31N 47°43' W 122°27'611.2
2017-Oct-12 01:01N 47°48' W 122°24'611.6
2017-Oct-12 00:31N 47°54' W 122°22'611.3
2017-Oct-12 00:00N 47°58' W 122°17'0 0.7
2017-Oct-11 23:30N 47°59' W 122°16'4 9.0
2017-Oct-11 23:01N 47°55' W 122°21'4 7.8
2017-Oct-11 22:31N 47°54' W 122°26'4 8.9
2017-Oct-11 22:01N 47°55' W 122°32'5 8.7
2017-Oct-11 21:29N 47°57' W 122°39'10 5.0
2017-Oct-11 19:33N 48°06' W 122°44'3 7.1
2017-Oct-11 19:05N 48°04' W 122°40'1 8.9
2017-Oct-11 19:00N 48°04' W 122°39'4 8.0
2017-Oct-11 18:27N 48°00' W 122°36'4 8.1
2017-Oct-11 18:00N 47°57' W 122°32'4 8.6
2017-Oct-11 17:31N 47°55' W 122°27'4 7.3
2017-Oct-11 17:01N 47°54' W 122°22'19 1.0
2017-Oct-10 21:39N 48°07' W 122°43'5 7.9
2017-Oct-10 21:02N 48°03' W 122°38'110.3
2017-Oct-10 20:58N 48°02' W 122°38'510.1
2017-Oct-10 20:30N 47°58' W 122°34'5 9.6
2017-Oct-10 20:01N 47°55' W 122°29'4 8.8
2017-Oct-10 19:31N 47°54' W 122°23'4 9.0
2017-Oct-10 19:01N 47°57' W 122°19'4 7.1
2017-Oct-10 18:30N 47°59' W 122°15'  

Dump ship's entire track history